Sevenpersons, Canada
Current Conditions -  °F | °C
As of 11:00 PM on Tuesday 21 Oct 2014 (Local Time) from CYXH Reporting Station
Overcast Overcast  
Wind Chill:   Ceiling: 11000
Heat Index:   Visibility: 9mi
Dew Point:   Wind: 5mph
Humidity: 93%   Direction: 240°WSW
Pressure: 29.72"   Gusts: NA
Location:  49.87°N, 110.9°W
Report Text: CYXH 220500Z AUTO 24004KT 9SM OVC110 09/08 A2972 RMK SLP069 DENSITY ALT 2400FT
Loading
Personal Weather Stations






























Interactive Weather Map
Tropical Storm Tracking
New forecast layout! Learn more

10-Day Weather Forecast

Advertisements
Track Severe Weather on mobile